createdAt,value
2022-08-30T00:01:00.747Z,82.90
2022-08-30T00:03:27.500Z,83.10
2022-08-30T00:05:56.379Z,82.89
2022-08-30T00:08:23.088Z,83.75
2022-08-30T00:10:51.147Z,83.11
2022-08-30T00:13:18.743Z,83.30
2022-08-30T00:15:45.391Z,83.54
2022-08-30T00:18:12.003Z,83.74
2022-08-30T00:20:38.681Z,84.03
2022-08-30T00:23:05.760Z,83.75
2022-08-30T00:25:32.343Z,83.77
2022-08-30T00:27:58.917Z,84.13
2022-08-30T00:30:25.433Z,84.01
2022-08-30T00:32:51.957Z,84.53
2022-08-30T00:35:20.509Z,84.67
2022-08-30T00:37:47.666Z,84.51
2022-08-30T00:40:15.932Z,84.60
2022-08-30T00:42:44.131Z,84.40
2022-08-30T00:45:22.591Z,85.04
2022-08-30T00:47:49.230Z,84.84
2022-08-30T00:50:19.500Z,85.04
2022-08-30T00:52:48.243Z,85.02
2022-08-30T00:55:16.908Z,85.24
2022-08-30T00:57:44.406Z,84.93
2022-08-30T01:00:12.065Z,85.20
2022-08-30T01:02:38.747Z,85.20
2022-08-30T01:05:06.995Z,85.22
2022-08-30T01:07:35.097Z,85.40
2022-08-30T01:10:02.605Z,85.37
2022-08-30T01:12:30.010Z,85.13
2022-08-30T01:14:57.528Z,85.76
2022-08-30T01:17:25.131Z,85.16
2022-08-30T01:19:56.164Z,85.96
2022-08-30T01:22:32.444Z,85.71
2022-08-30T01:25:00.189Z,85.97
2022-08-30T01:27:27.858Z,86.26
2022-08-30T01:29:54.710Z,85.49
2022-08-30T01:32:29.033Z,86.31
2022-08-30T01:34:56.871Z,86.12
2022-08-30T01:37:31.972Z,86.37
2022-08-30T01:39:59.183Z,86.05
2022-08-30T01:42:25.884Z,85.84
2022-08-30T01:44:54.547Z,86.00
2022-08-30T01:47:21.302Z,85.90
2022-08-30T01:49:48.210Z,86.20
2022-08-30T01:52:15.819Z,86.09
2022-08-30T01:54:44.613Z,86.45
2022-08-30T01:57:14.219Z,86.25
2022-08-30T01:59:43.396Z,86.44
2022-08-30T02:02:10.242Z,86.13
2022-08-30T02:04:36.816Z,86.18
2022-08-30T02:07:04.419Z,85.74
2022-08-30T02:09:30.935Z,85.95
2022-08-30T02:11:57.897Z,86.02
2022-08-30T02:14:24.406Z,86.51
2022-08-30T02:16:51.070Z,86.93
2022-08-30T02:19:18.014Z,86.62
2022-08-30T02:21:44.689Z,86.69
2022-08-30T02:24:11.196Z,87.33
2022-08-30T02:26:37.798Z,87.50
2022-08-30T02:29:05.833Z,87.55
2022-08-30T02:31:32.496Z,87.28
2022-08-30T02:33:59.005Z,87.38
2022-08-30T02:36:25.499Z,87.62
2022-08-30T02:38:52.470Z,87.59
2022-08-30T02:41:19.806Z,87.75
2022-08-30T02:43:46.748Z,87.37
2022-08-30T02:46:13.306Z,87.65
2022-08-30T02:48:39.980Z,87.33
2022-08-30T02:51:09.638Z,87.29
2022-08-30T02:53:38.083Z,87.35
2022-08-30T02:56:04.818Z,87.16
2022-08-30T02:58:31.324Z,87.45
2022-08-30T03:00:57.932Z,87.46
2022-08-30T03:03:24.801Z,87.44
2022-08-30T03:05:51.333Z,86.83
2022-08-30T03:08:17.892Z,87.51
2022-08-30T03:10:44.417Z,87.41
2022-08-30T03:13:11.722Z,87.06
2022-08-30T03:15:39.356Z,87.10
2022-08-30T03:18:06.314Z,86.77
2022-08-30T03:20:35.081Z,86.73
2022-08-30T03:23:02.110Z,87.40
2022-08-30T03:25:29.207Z,86.95
2022-08-30T03:27:55.698Z,87.09
2022-08-30T03:30:22.205Z,87.37
2022-08-30T03:32:48.806Z,87.59
2022-08-30T03:35:18.174Z,87.49
2022-08-30T03:37:46.103Z,87.63
2022-08-30T03:40:14.699Z,87.63
2022-08-30T03:42:43.320Z,87.72
2022-08-30T03:45:11.519Z,87.56
2022-08-30T03:47:38.032Z,87.48
2022-08-30T03:50:08.212Z,88.20
2022-08-30T03:52:34.775Z,87.81
2022-08-30T03:55:01.367Z,87.89
2022-08-30T03:57:28.638Z,88.33
2022-08-30T03:59:55.181Z,88.41
2022-08-30T04:02:21.759Z,88.58
2022-08-30T04:04:48.648Z,88.16
2022-08-30T04:07:15.138Z,88.57
2022-08-30T04:09:41.872Z,88.92
2022-08-30T04:12:08.435Z,88.41
2022-08-30T04:14:34.939Z,88.73
2022-08-30T04:17:01.495Z,89.06
2022-08-30T04:19:27.995Z,89.49
2022-08-30T04:21:57.233Z,88.65
2022-08-30T04:24:23.793Z,89.07
2022-08-30T04:26:50.288Z,88.89
2022-08-30T04:29:17.685Z,89.07
2022-08-30T04:31:45.270Z,89.40
2022-08-30T04:34:12.834Z,88.79
2022-08-30T04:36:39.345Z,89.00
2022-08-30T04:39:06.260Z,89.32
2022-08-30T04:41:32.921Z,89.09
2022-08-30T04:44:03.466Z,88.99
2022-08-30T04:46:30.397Z,89.66
2022-08-30T04:48:56.906Z,89.88
2022-08-30T04:51:23.395Z,89.19
2022-08-30T04:53:50.007Z,90.00
2022-08-30T04:56:22.196Z,89.74
2022-08-30T04:58:50.433Z,90.38
2022-08-30T05:01:20.493Z,89.74
2022-08-30T05:03:51.020Z,90.16
2022-08-30T05:06:17.662Z,89.83
2022-08-30T05:08:46.342Z,89.51
2022-08-30T05:11:14.760Z,89.62
2022-08-30T05:13:41.449Z,89.50
2022-08-30T05:16:08.367Z,89.54
2022-08-30T05:18:35.677Z,89.47
2022-08-30T05:21:05.018Z,89.09
2022-08-30T05:23:31.748Z,89.14
2022-08-30T05:25:58.274Z,89.18
2022-08-30T05:28:26.319Z,89.10
2022-08-30T05:30:52.989Z,88.41
2022-08-30T05:33:19.581Z,88.21
2022-08-30T05:35:46.137Z,88.01
2022-08-30T05:38:12.657Z,87.90
2022-08-30T05:40:43.951Z,87.23
2022-08-30T05:43:11.285Z,86.30
2022-08-30T05:45:38.390Z,85.81
2022-08-30T05:48:05.019Z,85.50
2022-08-30T05:50:31.547Z,84.91
2022-08-30T05:52:58.041Z,82.91
2022-08-30T05:55:24.539Z,81.85
2022-08-30T05:57:51.067Z,79.92
2022-08-30T06:00:18.164Z,79.28
2022-08-30T06:02:44.747Z,77.85
2022-08-30T06:05:13.054Z,76.61
2022-08-30T06:07:40.897Z,75.35
2022-08-30T06:10:07.457Z,74.07
2022-08-30T06:12:34.102Z,73.79
2022-08-30T06:15:00.643Z,73.58
2022-08-30T06:17:27.199Z,73.91
2022-08-30T06:19:53.686Z,74.06
2022-08-30T06:22:20.176Z,74.12
2022-08-30T06:25:01.909Z,74.75
2022-08-30T06:27:28.459Z,74.59
2022-08-30T06:29:54.966Z,74.45
2022-08-30T06:32:21.879Z,74.29
2022-08-30T06:34:48.479Z,73.78
2022-08-30T06:37:29.033Z,73.91
2022-08-30T06:39:57.911Z,74.28
2022-08-30T06:42:30.452Z,74.37
2022-08-30T06:45:00.551Z,74.64
2022-08-30T06:47:28.448Z,74.64
2022-08-30T06:49:55.016Z,75.15
2022-08-30T06:52:21.582Z,73.60
2022-08-30T06:54:48.097Z,72.15
2022-08-30T06:57:14.613Z,71.10
2022-08-30T06:59:41.140Z,70.52
2022-08-30T07:02:08.349Z,70.71
2022-08-30T07:04:35.066Z,71.05
2022-08-30T07:07:01.604Z,71.16
2022-08-30T07:09:28.135Z,71.43
2022-08-30T07:11:55.291Z,71.96
2022-08-30T07:14:22.213Z,72.22
2022-08-30T07:16:50.920Z,72.26
2022-08-30T07:19:20.556Z,72.40
2022-08-30T07:21:48.891Z,72.17
2022-08-30T07:24:16.322Z,72.72
2022-08-30T07:26:47.140Z,72.51
2022-08-30T07:29:13.648Z,72.33
2022-08-30T07:31:40.473Z,72.89
2022-08-30T07:34:07.747Z,72.75
2022-08-30T07:36:35.807Z,72.53
2022-08-30T07:39:02.878Z,72.49
2022-08-30T07:41:35.586Z,72.17
2022-08-30T07:44:02.335Z,73.34
2022-08-30T07:46:28.955Z,73.02
2022-08-30T07:48:55.887Z,72.39
2022-08-30T07:51:24.683Z,72.96
2022-08-30T07:53:51.539Z,72.06
2022-08-30T07:56:18.353Z,71.40
2022-08-30T07:58:44.835Z,70.32
2022-08-30T08:01:12.870Z,69.14
2022-08-30T08:03:40.684Z,68.31
2022-08-30T08:06:08.785Z,68.23
2022-08-30T08:08:36.458Z,67.30
2022-08-30T08:11:10.690Z,65.89
2022-08-30T08:13:53.605Z,65.63
2022-08-30T08:16:25.829Z,65.18
2022-08-30T08:18:53.308Z,64.59
2022-08-30T08:21:20.357Z,64.84
2022-08-30T08:23:46.968Z,65.24
2022-08-30T08:26:13.608Z,64.53
2022-08-30T08:28:40.106Z,63.78
2022-08-30T08:31:17.739Z,63.05
2022-08-30T08:33:44.515Z,62.20
2022-08-30T08:36:11.039Z,63.34
2022-08-30T08:38:37.849Z,62.62
2022-08-30T08:41:23.058Z,63.75
2022-08-30T08:43:49.580Z,63.06
2022-08-30T08:46:52.444Z,61.62
2022-08-30T08:49:18.956Z,61.50
2022-08-30T08:52:04.060Z,61.08
2022-08-30T08:54:47.269Z,61.71
2022-08-30T08:57:16.560Z,62.22
2022-08-30T08:59:44.924Z,62.72
2022-08-30T09:02:37.792Z,63.18
2022-08-30T09:05:04.639Z,61.74
2022-08-30T09:07:37.510Z,62.12
2022-08-30T09:10:04.506Z,61.37
2022-08-30T09:12:31.012Z,62.38
2022-08-30T09:15:25.115Z,61.65
2022-08-30T09:18:01.888Z,61.44
2022-08-30T09:20:47.110Z,61.42
2022-08-30T09:23:20.768Z,61.22
2022-08-30T09:26:03.861Z,62.04
2022-08-30T09:28:34.147Z,60.93
2022-08-30T09:31:17.484Z,59.88
2022-08-30T09:34:08.216Z,56.79
2022-08-30T09:36:44.514Z,55.17
2022-08-30T09:39:27.592Z,53.88
2022-08-30T09:41:54.969Z,53.90
2022-08-30T09:44:23.283Z,52.87
2022-08-30T09:46:51.287Z,51.95
2022-08-30T09:49:41.329Z,51.98
2022-08-30T09:52:12.529Z,50.54
2022-08-30T09:54:49.244Z,49.37
2022-08-30T09:57:33.833Z,50.43
2022-08-30T10:00:23.535Z,50.48
2022-08-30T10:03:04.351Z,50.21
2022-08-30T10:05:45.565Z,50.67
2022-08-30T10:08:19.755Z,50.38
2022-08-30T10:10:56.387Z,50.87
2022-08-30T10:13:33.793Z,52.44
2022-08-30T10:16:25.237Z,52.61
2022-08-30T10:19:11.091Z,53.13
2022-08-30T10:21:59.354Z,52.83
2022-08-30T10:24:36.255Z,53.85
2022-08-30T10:27:07.810Z,53.45
2022-08-30T10:29:42.511Z,53.24
2022-08-30T10:32:24.723Z,53.16
2022-08-30T10:35:14.307Z,53.15
2022-08-30T10:37:51.457Z,53.35
2022-08-30T10:40:46.083Z,53.31
2022-08-30T10:43:31.770Z,52.68
2022-08-30T10:46:02.609Z,51.87
2022-08-30T10:48:35.685Z,52.20
2022-08-30T10:51:28.054Z,52.39
2022-08-30T10:53:57.897Z,52.67
2022-08-30T10:56:26.211Z,52.58
2022-08-30T10:58:54.439Z,52.67
2022-08-30T11:01:53.170Z,52.17
2022-08-30T11:04:51.940Z,51.35
2022-08-30T11:07:52.135Z,50.96
2022-08-30T11:10:32.258Z,50.52
2022-08-30T11:13:13.280Z,49.87
2022-08-30T11:15:59.951Z,50.61
2022-08-30T11:18:29.827Z,48.82
2022-08-30T11:21:21.375Z,48.94
2022-08-30T11:24:02.670Z,48.79
2022-08-30T11:26:50.604Z,47.19
2022-08-30T11:29:26.075Z,46.48
2022-08-30T11:31:53.819Z,45.69
2022-08-30T11:34:48.599Z,46.73
2022-08-30T11:37:43.108Z,45.66
2022-08-30T11:40:44.317Z,46.63
2022-08-30T11:43:36.850Z,47.44
2022-08-30T11:46:28.510Z,46.25
2022-08-30T11:49:10.035Z,45.93
2022-08-30T11:52:27.211Z,45.89
2022-08-30T11:55:20.872Z,43.52
2022-08-30T11:58:13.088Z,43.56
2022-08-30T12:00:51.338Z,44.99
2022-08-30T12:03:22.356Z,45.67
2022-08-30T12:06:16.503Z,45.92
2022-08-30T12:08:48.115Z,45.67
2022-08-30T12:11:18.878Z,45.58
2022-08-30T12:13:45.251Z,44.87
2022-08-30T12:16:14.894Z,46.16
2022-08-30T12:18:52.889Z,46.80
2022-08-30T12:21:21.539Z,46.54
2022-08-30T12:23:53.702Z,44.90
2022-08-30T12:26:26.099Z,44.09
2022-08-30T12:29:07.687Z,44.68
2022-08-30T12:31:49.214Z,44.63
2022-08-30T12:34:21.547Z,44.27
2022-08-30T12:37:04.542Z,43.57
2022-08-30T12:39:43.394Z,43.90
2022-08-30T12:42:23.443Z,43.51
2022-08-30T12:44:57.768Z,42.50
2022-08-30T12:47:33.194Z,42.45
2022-08-30T12:50:00.188Z,42.52
2022-08-30T12:52:26.616Z,42.96
2022-08-30T12:54:54.735Z,41.71
2022-08-30T12:57:39.529Z,42.08
2022-08-30T13:00:09.430Z,41.25
2022-08-30T13:02:53.608Z,42.89
2022-08-30T13:05:45.515Z,43.35
2022-08-30T13:08:18.613Z,42.66
2022-08-30T13:11:01.441Z,42.07
2022-08-30T13:13:43.601Z,43.07
2022-08-30T13:16:20.572Z,42.27
2022-08-30T13:19:16.497Z,43.41
2022-08-30T13:21:54.622Z,43.43
2022-08-30T13:24:25.195Z,42.99
2022-08-30T13:26:54.277Z,42.92
2022-08-30T13:29:25.960Z,42.15
2022-08-30T13:31:52.664Z,42.55
2022-08-30T13:34:22.411Z,42.51
2022-08-30T13:36:53.199Z,42.26
2022-08-30T13:39:21.843Z,42.59
2022-08-30T13:41:48.772Z,41.92
2022-08-30T13:44:15.905Z,41.96
2022-08-30T13:46:51.060Z,42.92
2022-08-30T13:49:46.887Z,43.31
2022-08-30T13:52:21.761Z,42.90
2022-08-30T13:54:53.235Z,41.64
2022-08-30T14:00:14.506Z,41.96
2022-08-30T14:02:46.450Z,42.39
2022-08-30T14:05:37.573Z,43.69
2022-08-30T14:08:05.958Z,43.09
2022-08-30T14:10:33.217Z,43.16
2022-08-30T14:13:08.766Z,43.11
2022-08-30T14:15:38.908Z,42.84
2022-08-30T14:18:06.480Z,42.30
2022-08-30T14:20:33.278Z,41.37
2022-08-30T14:22:59.771Z,42.00
2022-08-30T14:25:28.564Z,41.75
2022-08-30T14:27:58.382Z,41.80
2022-08-30T14:30:25.191Z,41.77
2022-08-30T14:32:51.851Z,40.97
2022-08-30T14:35:20.310Z,41.43
2022-08-30T14:37:48.223Z,40.00
2022-08-30T14:40:15.475Z,39.29
2022-08-30T14:42:42.188Z,40.08
2022-08-30T14:45:09.678Z,41.14
2022-08-30T14:47:36.195Z,41.07
2022-08-30T14:50:02.881Z,41.75
2022-08-30T14:52:29.656Z,42.39
2022-08-30T14:55:03.727Z,42.15
2022-08-30T14:57:32.702Z,42.08
2022-08-30T14:59:59.678Z,42.16
2022-08-30T15:02:27.154Z,41.04
2022-08-30T15:04:53.779Z,41.58
2022-08-30T15:07:20.267Z,40.85
2022-08-30T15:09:46.839Z,40.77
2022-08-30T15:12:13.474Z,41.44
2022-08-30T15:14:40.199Z,42.10
2022-08-30T15:17:06.712Z,42.54
2022-08-30T15:19:33.544Z,41.64
2022-08-30T15:22:05.372Z,42.89
2022-08-30T15:24:32.427Z,42.93
2022-08-30T15:27:00.119Z,43.81
2022-08-30T15:29:27.498Z,44.15
2022-08-30T15:31:57.327Z,44.15
2022-08-30T15:34:26.241Z,42.88
2022-08-30T15:36:54.739Z,42.79
2022-08-30T15:39:21.253Z,42.38
2022-08-30T15:41:56.065Z,43.66
2022-08-30T15:44:23.750Z,43.62
2022-08-30T15:46:50.487Z,42.53
2022-08-30T15:49:20.150Z,42.95
2022-08-30T15:51:49.028Z,43.83
2022-08-30T15:54:20.607Z,43.01
2022-08-30T15:56:48.144Z,43.42
2022-08-30T15:59:15.364Z,43.68
2022-08-30T16:01:43.098Z,43.12
2022-08-30T16:04:10.711Z,42.74
2022-08-30T16:06:37.765Z,43.23
2022-08-30T16:09:06.934Z,43.50
2022-08-30T16:11:34.170Z,44.87
2022-08-30T16:14:01.473Z,45.66
2022-08-30T16:16:28.220Z,45.41
2022-08-30T16:18:55.335Z,45.95
2022-08-30T16:21:28.176Z,46.35
2022-08-30T16:23:59.593Z,46.26
2022-08-30T16:26:27.953Z,46.77
2022-08-30T16:28:54.704Z,45.63
2022-08-30T16:31:21.843Z,45.86
2022-08-30T16:33:52.414Z,46.39
2022-08-30T16:36:20.525Z,46.47
2022-08-30T16:38:47.763Z,47.37
2022-08-30T16:41:21.069Z,46.92
2022-08-30T16:43:49.425Z,46.51
2022-08-30T16:46:17.395Z,46.80
2022-08-30T16:48:45.166Z,47.35
2022-08-30T16:51:14.737Z,47.47
2022-08-30T16:53:42.337Z,47.33
2022-08-30T16:56:12.754Z,48.04
2022-08-30T16:58:40.023Z,48.27
2022-08-30T17:01:06.635Z,48.55
2022-08-30T17:03:33.506Z,48.53
2022-08-30T17:06:00.353Z,49.58
2022-08-30T17:08:26.890Z,49.90
2022-08-30T17:10:53.544Z,49.82
2022-08-30T17:13:20.277Z,50.44
2022-08-30T17:15:47.979Z,49.92
2022-08-30T17:18:17.200Z,50.32
2022-08-30T17:20:45.307Z,49.89
2022-08-30T17:23:12.147Z,50.73
2022-08-30T17:25:39.118Z,51.34
2022-08-30T17:28:07.980Z,50.92
2022-08-30T17:30:35.116Z,50.67
2022-08-30T17:33:01.868Z,51.73
2022-08-30T17:35:28.660Z,51.72
2022-08-30T17:37:55.165Z,51.37
2022-08-30T17:40:22.067Z,51.37
2022-08-30T17:42:48.627Z,51.71
2022-08-30T17:45:17.125Z,51.90
2022-08-30T17:47:44.218Z,52.49
2022-08-30T17:50:11.346Z,52.47
2022-08-30T17:52:38.477Z,53.12
2022-08-30T17:55:06.858Z,53.11
2022-08-30T17:57:33.637Z,53.14
2022-08-30T18:00:00.769Z,54.04
2022-08-30T18:02:29.653Z,54.68
2022-08-30T18:04:58.131Z,54.76
2022-08-30T18:07:25.726Z,54.17
2022-08-30T18:09:53.624Z,55.02
2022-08-30T18:12:20.980Z,54.81
2022-08-30T18:14:47.516Z,55.57
2022-08-30T18:17:19.681Z,55.62
2022-08-30T18:19:46.842Z,55.92
2022-08-30T18:22:14.060Z,55.99
2022-08-30T18:24:40.650Z,56.72
2022-08-30T18:27:07.227Z,56.83
2022-08-30T18:29:33.868Z,56.78
2022-08-30T18:32:01.446Z,57.40
2022-08-30T18:34:28.305Z,57.67
2022-08-30T18:36:55.506Z,57.53
2022-08-30T18:39:22.179Z,57.87
2022-08-30T18:41:49.337Z,58.08
2022-08-30T18:44:27.852Z,58.17
2022-08-30T18:46:57.241Z,58.51
2022-08-30T18:49:25.180Z,58.89
2022-08-30T18:51:51.724Z,58.95
2022-08-30T18:54:18.725Z,59.48
2022-08-30T18:56:45.430Z,59.67
2022-08-30T18:59:12.541Z,59.64
2022-08-30T19:01:39.079Z,60.28
2022-08-30T19:04:07.090Z,60.20
2022-08-30T19:06:34.445Z,60.02
2022-08-30T19:09:00.997Z,60.07
2022-08-30T19:11:27.919Z,60.19
2022-08-30T19:13:54.983Z,60.53
2022-08-30T19:16:21.928Z,60.83
2022-08-30T19:18:48.803Z,60.81
2022-08-30T19:21:15.417Z,60.85
2022-08-30T19:23:43.514Z,60.78
2022-08-30T19:26:10.765Z,60.86
2022-08-30T19:28:37.746Z,61.30
2022-08-30T19:31:04.710Z,61.31
2022-08-30T19:33:35.685Z,62.01
2022-08-30T19:36:05.120Z,63.62
2022-08-30T19:38:31.728Z,65.28
2022-08-30T19:41:01.887Z,66.87
2022-08-30T19:43:30.706Z,67.59
2022-08-30T19:46:00.663Z,67.61
2022-08-30T19:48:32.721Z,68.87
2022-08-30T19:51:06.498Z,67.82
2022-08-30T19:53:33.485Z,66.82
2022-08-30T19:56:00.167Z,66.66
2022-08-30T19:58:26.867Z,65.30
2022-08-30T20:01:00.853Z,65.42
2022-08-30T20:03:38.073Z,64.87
2022-08-30T20:06:06.940Z,65.18
2022-08-30T20:08:33.503Z,65.05
2022-08-30T20:11:00.009Z,65.53
2022-08-30T20:13:26.750Z,64.80
2022-08-30T20:15:55.942Z,65.14
2022-08-30T20:18:25.879Z,65.01
2022-08-30T20:20:53.239Z,65.21
2022-08-30T20:23:23.298Z,65.47
2022-08-30T20:25:52.321Z,65.23
2022-08-30T20:28:20.505Z,65.79
2022-08-30T20:30:48.095Z,65.91
2022-08-30T20:33:14.630Z,65.54
2022-08-30T20:35:48.335Z,66.88
2022-08-30T20:38:21.150Z,68.48
2022-08-30T20:40:51.146Z,67.42
2022-08-30T20:43:20.107Z,68.96
2022-08-30T20:45:47.434Z,69.89
2022-08-30T20:48:14.631Z,70.58
2022-08-30T20:50:41.615Z,69.88
2022-08-30T20:53:08.659Z,70.00
2022-08-30T20:55:35.335Z,70.99
2022-08-30T20:58:01.822Z,71.06
2022-08-30T21:00:28.361Z,71.39
2022-08-30T21:02:54.920Z,71.98
2022-08-30T21:05:21.604Z,72.58
2022-08-30T21:07:48.151Z,72.68
2022-08-30T21:10:14.995Z,73.32
2022-08-30T21:12:42.725Z,73.36
2022-08-30T21:15:26.951Z,71.54
2022-08-30T21:17:56.179Z,71.45
2022-08-30T21:20:23.322Z,70.98
2022-08-30T21:22:49.891Z,72.27
2022-08-30T21:25:16.397Z,73.29
2022-08-30T21:27:43.701Z,73.08
2022-08-30T21:30:12.439Z,74.34
2022-08-30T21:32:41.957Z,74.46
2022-08-30T21:35:27.959Z,74.33
2022-08-30T21:37:54.627Z,74.13
2022-08-30T21:40:21.578Z,73.48
2022-08-30T21:42:48.316Z,72.68
2022-08-30T21:45:15.295Z,72.73
2022-08-30T21:47:42.358Z,72.38
2022-08-30T21:50:09.814Z,72.93
2022-08-30T21:52:36.347Z,73.01
2022-08-30T21:55:03.766Z,72.59
2022-08-30T21:57:31.165Z,72.72
2022-08-30T21:59:57.738Z,72.94
2022-08-30T22:02:24.287Z,72.89
2022-08-30T22:04:50.831Z,73.01
2022-08-30T22:07:17.326Z,73.25
2022-08-30T22:09:44.079Z,72.98
2022-08-30T22:12:10.708Z,73.04
2022-08-30T22:14:37.785Z,72.82
2022-08-30T22:17:05.442Z,73.22
2022-08-30T22:19:33.704Z,73.00
2022-08-30T22:22:00.640Z,73.39
2022-08-30T22:24:29.293Z,73.61
2022-08-30T22:26:59.071Z,73.66
2022-08-30T22:29:25.577Z,74.18
2022-08-30T22:31:52.199Z,74.34
2022-08-30T22:34:18.745Z,74.28
2022-08-30T22:36:45.689Z,74.42
2022-08-30T22:39:13.258Z,74.54
2022-08-30T22:41:42.859Z,74.56
2022-08-30T22:44:09.725Z,74.88
2022-08-30T22:46:37.780Z,75.56
2022-08-30T22:49:05.914Z,75.73
2022-08-30T22:51:33.571Z,75.87
2022-08-30T22:54:01.165Z,75.79
2022-08-30T22:56:28.400Z,76.29
2022-08-30T22:58:55.662Z,76.82
2022-08-30T23:01:26.742Z,76.77
2022-08-30T23:03:57.291Z,76.25
2022-08-30T23:06:23.935Z,76.39
2022-08-30T23:08:50.507Z,76.66
2022-08-30T23:11:17.682Z,76.56
2022-08-30T23:13:44.741Z,76.68
2022-08-30T23:16:13.033Z,76.62
2022-08-30T23:18:41.115Z,76.43
2022-08-30T23:21:15.919Z,75.83
2022-08-30T23:24:01.456Z,76.30
2022-08-30T23:26:46.399Z,77.03
2022-08-30T23:29:31.789Z,78.26
2022-08-30T23:32:16.929Z,79.55
2022-08-30T23:35:02.301Z,80.38
2022-08-30T23:37:47.295Z,80.41
2022-08-30T23:40:37.964Z,79.75
2022-08-30T23:43:23.281Z,79.37
2022-08-30T23:46:08.473Z,79.60
2022-08-30T23:48:53.707Z,79.74
2022-08-30T23:51:38.953Z,80.05
2022-08-30T23:54:23.939Z,80.31
2022-08-30T23:57:09.551Z,80.49
2022-08-30T23:59:54.640Z,80.23
